Time;durP1;ratioP1;P1;durP2;ratioP2;P2;SDS_P1;SDS_P2;PMS_P1;PMS_P2;Temp;Humidity;BMP_temperature;BMP_pressure;BME280_temperature;BME280_humidity;BME280_pressure;Samples;Min_cycle;Max_cycle;Signal;HPM_P1;HPM_P2
2021/12/23 00:00:21;;;;;;;33.93;13.80;;;;;;;-8.85;95.21;98259.56;5068825;28;20683;-61
2021/12/23 00:02:48;;;;;;;35.37;12.83;;;;;;;-8.80;95.35;98263.91;5069439;28;20624;-61
2021/12/23 00:05:14;;;;;;;30.27;13.63;;;;;;;-9.04;95.32;98257.63;5068909;28;21058;-60
2021/12/23 00:07:41;;;;;;;41.70;15.47;;;;;;;-9.08;95.46;98256.69;5069246;28;20296;-59
2021/12/23 00:10:10;;;;;;;38.67;15.63;;;;;;;-9.12;95.61;98249.84;5069284;28;20671;-59
2021/12/23 00:12:39;;;;;;;38.57;15.10;;;;;;;-9.18;95.73;98254.00;5069248;28;20767;-59
2021/12/23 00:15:16;;;;;;;39.20;14.60;;;;;;;-9.17;95.81;98253.16;5068895;28;20294;-59
2021/12/23 00:17:59;;;;;;;41.57;14.07;;;;;;;-9.12;96.34;98260.06;5069412;28;20315;-60
2021/12/23 00:23:25;;;;;;;49.77;15.83;;;;;;;-9.09;96.12;98260.09;5069264;28;20044;-59
2021/12/23 00:26:00;;;;;;;46.23;15.90;;;;;;;-9.08;95.70;98249.06;5062311;28;20291;-63
2021/12/23 00:28:29;;;;;;;38.50;16.23;;;;;;;-9.09;95.99;98255.00;5064986;28;20287;-59
2021/12/23 00:30:56;;;;;;;42.47;15.17;;;;;;;-9.04;95.96;98253.34;5066368;28;20356;-60
2021/12/23 00:33:23;;;;;;;42.10;16.03;;;;;;;-8.94;95.65;98250.09;5065501;28;20286;-60
2021/12/23 00:35:52;;;;;;;45.23;17.17;;;;;;;-9.02;95.65;98246.59;5051116;28;20783;-60
2021/12/23 00:38:23;;;;;;;45.37;18.43;;;;;;;-9.02;95.81;98245.72;5061656;28;20321;-60
2021/12/23 00:40:55;;;;;;;42.93;16.67;;;;;;;-9.06;95.75;98243.97;5068663;28;20671;-59
2021/12/23 00:43:22;;;;;;;43.70;16.37;;;;;;;-9.33;95.68;98239.34;5064274;28;20370;-60
2021/12/23 00:45:49;;;;;;;45.13;17.67;;;;;;;-9.51;96.14;98238.22;5061164;28;20756;-59
2021/12/23 00:48:17;;;;;;;53.23;16.73;;;;;;;-9.66;96.82;98233.75;5065490;28;20299;-59
2021/12/23 00:50:44;;;;;;;49.13;17.83;;;;;;;-9.76;97.14;98229.34;5064636;28;20765;-59
2021/12/23 00:53:16;;;;;;;48.30;18.87;;;;;;;-9.85;97.14;98236.81;5067841;28;20617;-60
2021/12/23 00:55:44;;;;;;;45.27;17.60;;;;;;;-9.86;98.00;98237.66;5063603;28;20299;-59
2021/12/23 00:58:12;;;;;;;50.73;18.50;;;;;;;-9.82;98.16;98230.94;5064387;28;20357;-60
2021/12/23 01:00:39;;;;;;;51.30;19.30;;;;;;;-9.76;99.11;98231.91;5059783;28;20764;-59
2021/12/23 01:03:06;;;;;;;41.60;15.40;;;;;;;-9.71;98.98;98235.34;5059686;28;20290;-59
2021/12/23 01:05:33;;;;;;;43.33;16.77;;;;;;;-9.67;99.01;98224.38;5061922;28;20298;-59
2021/12/23 01:08:00;;;;;;;55.20;19.87;;;;;;;-9.60;98.35;98223.66;5062775;28;20295;-58
2021/12/23 01:10:27;;;;;;;42.53;17.33;;;;;;;-9.53;98.15;98230.56;5066559;28;21097;-60
2021/12/23 01:12:58;;;;;;;58.63;18.20;;;;;;;-9.54;98.58;98226.31;5065819;28;20782;-60
2021/12/23 01:15:50;;;;;;;41.37;16.70;;;;;;;-9.56;98.05;98230.50;5068684;28;20386;-59
2021/12/23 01:18:20;;;;;;;40.47;16.23;;;;;;;-9.45;99.05;98230.69;5064699;28;20635;-59
2021/12/23 01:20:53;;;;;;;44.97;16.60;;;;;;;-9.30;98.50;98234.28;5071876;28;20377;-60
2021/12/23 01:23:22;;;;;;;44.00;15.43;;;;;;;-9.17;98.85;98232.78;5067258;28;20287;-60
2021/12/23 01:25:50;;;;;;;34.60;15.47;;;;;;;-9.16;98.25;98224.28;5070699;28;20797;-60
2021/12/23 01:28:17;;;;;;;33.60;14.20;;;;;;;-9.21;98.91;98228.47;5068618;28;20305;-60
2021/12/23 01:30:45;;;;;;;43.67;15.60;;;;;;;-9.28;99.12;98225.00;5061834;28;20302;-60
2021/12/23 01:33:13;;;;;;;43.27;15.27;;;;;;;-9.27;99.27;98226.69;5071365;28;20286;-60
2021/12/23 01:35:41;;;;;;;36.70;13.67;;;;;;;-9.31;99.51;98219.84;5071854;28;20295;-62
2021/12/23 01:38:08;;;;;;;41.90;15.93;;;;;;;-9.24;99.68;98219.09;5068519;28;20318;-63
2021/12/23 01:40:35;;;;;;;35.07;15.30;;;;;;;-9.21;99.92;98218.28;5067500;28;20298;-62
2021/12/23 01:43:03;;;;;;;32.00;13.40;;;;;;;-9.15;100.00;98213.25;5066026;28;20291;-64
2021/12/23 01:45:33;;;;;;;34.63;15.23;;;;;;;-9.12;99.74;98218.41;5069092;28;20717;-63
2021/12/23 01:48:02;;;;;;;38.57;15.07;;;;;;;-9.04;100.00;98217.66;5063485;28;20297;-63
2021/12/23 01:50:30;;;;;;;35.60;13.80;;;;;;;-9.08;99.74;98220.16;5070211;28;20620;-63
2021/12/23 01:52:59;;;;;;;46.10;15.53;;;;;;;-9.08;100.00;98220.16;5067761;28;21143;-62
2021/12/23 01:55:27;;;;;;;32.57;11.90;;;;;;;-9.10;99.76;98217.59;5068377;28;20679;-63
2021/12/23 01:57:54;;;;;;;33.23;14.10;;;;;;;-9.13;99.33;98220.09;5071034;28;20299;-63
2021/12/23 02:00:25;;;;;;;38.13;15.10;;;;;;;-9.09;99.90;98223.53;5071837;28;20298;-63
2021/12/23 02:02:53;;;;;;;44.20;15.93;;;;;;;-9.04;99.70;98217.66;5067319;28;20298;-63
2021/12/23 02:05:22;;;;;;;40.40;16.00;;;;;;;-9.10;99.49;98217.59;5068545;28;20291;-63
2021/12/23 02:07:49;;;;;;;40.83;15.77;;;;;;;-9.08;99.49;98212.53;5064536;28;20291;-62
2021/12/23 02:10:17;;;;;;;43.60;15.87;;;;;;;-9.16;99.00;98208.97;5068202;28;20373;-63
2021/12/23 02:12:45;;;;;;;38.90;14.80;;;;;;;-9.26;99.73;98205.44;5070839;28;20356;-62
2021/12/23 02:15:12;;;;;;;38.17;15.17;;;;;;;-9.38;100.00;98207.84;5070115;28;20287;-63
2021/12/23 02:17:39;;;;;;;34.63;14.13;;;;;;;-9.49;100.00;98199.19;5068330;28;20791;-62
2021/12/23 02:20:10;;;;;;;45.13;17.43;;;;;;;-9.48;100.00;98197.50;5071495;28;20291;-63
2021/12/23 02:22:37;;;;;;;42.03;17.20;;;;;;;-9.53;100.00;98189.78;5071061;28;20282;-63
2021/12/23 02:25:05;;;;;;;37.97;14.60;;;;;;;-9.56;100.00;98192.28;5071849;28;20302;-63
2021/12/23 02:27:33;;;;;;;47.87;15.50;;;;;;;-9.51;100.00;98187.25;5070602;28;20290;-63
2021/12/23 02:30:00;;;;;;;43.97;15.50;;;;;;;-9.47;100.00;98183.91;5069749;28;20297;-62
2021/12/23 02:32:27;;;;;;;39.13;16.33;;;;;;;-9.37;100.00;98191.69;5070960;28;20286;-63
2021/12/23 02:34:54;;;;;;;45.03;15.13;;;;;;;-9.25;100.00;98196.13;5069962;28;20790;-63
2021/12/23 02:37:22;;;;;;;42.23;15.83;;;;;;;-9.16;100.00;98192.00;5069999;28;20297;-63
2021/12/23 02:39:49;;;;;;;47.67;16.40;;;;;;;-9.02;100.00;98195.59;5070244;28;20641;-63
2021/12/23 02:42:16;;;;;;;35.53;13.83;;;;;;;-8.94;100.00;98195.66;5070025;28;20826;-63
2021/12/23 02:44:42;;;;;;;37.07;15.27;;;;;;;-8.81;100.00;98193.31;5070553;28;20735;-63
2021/12/23 02:47:09;;;;;;;51.17;17.60;;;;;;;-8.66;100.00;98190.06;5070227;28;20295;-63
2021/12/23 02:49:36;;;;;;;38.77;16.47;;;;;;;-8.58;99.53;98181.63;5070071;28;20301;-63
2021/12/23 02:52:03;;;;;;;39.40;15.93;;;;;;;-8.55;99.43;98178.25;5071162;28;20286;-63
2021/12/23 02:54:35;;;;;;;37.77;15.00;;;;;;;-8.52;98.68;98180.84;5071437;28;20279;-63
2021/12/23 02:57:02;;;;;;;47.33;16.60;;;;;;;-8.60;98.52;98182.47;5071551;28;20370;-63
2021/12/23 02:59:29;;;;;;;40.27;14.33;;;;;;;-8.55;98.80;98181.66;5070948;28;20625;-63
2021/12/23 03:01:56;;;;;;;41.60;15.93;;;;;;;-8.58;97.94;98171.41;5070495;28;20290;-63
2021/12/23 03:04:23;;;;;;;43.00;16.73;;;;;;;-8.49;97.41;98171.50;5070680;28;20344;-63
2021/12/23 03:06:50;;;;;;;50.07;18.77;;;;;;;-8.64;96.85;98173.94;5070829;28;20295;-63
2021/12/23 03:09:16;;;;;;;46.80;19.47;;;;;;;-8.78;96.75;98179.72;5070875;28;20287;-62
2021/12/23 03:11:45;;;;;;;50.27;17.00;;;;;;;-8.89;96.35;98176.19;5070918;28;20381;-62
2021/12/23 03:14:14;;;;;;;43.40;16.60;;;;;;;-9.09;95.91;98173.41;5070689;28;20298;-62
2021/12/23 03:16:41;;;;;;;48.00;18.53;;;;;;;-9.33;96.04;98175.63;5070310;28;20299;-63
2021/12/23 03:19:08;;;;;;;46.43;16.30;;;;;;;-9.51;96.65;98177.06;5070781;28;20282;-63
2021/12/23 03:21:36;;;;;;;43.63;17.73;;;;;;;-9.68;96.72;98168.31;5070377;28;20286;-64
2021/12/23 03:24:03;;;;;;;49.80;17.50;;;;;;;-9.55;97.08;98160.91;5070830;28;20298;-63
2021/12/23 03:26:30;;;;;;;39.17;16.37;;;;;;;-9.55;97.52;98172.75;5070249;28;20282;-63
2021/12/23 03:28:58;;;;;;;48.13;16.77;;;;;;;-9.68;97.12;98165.75;5070222;28;20287;-63
2021/12/23 03:31:25;;;;;;;49.87;20.30;;;;;;;-9.68;97.60;98166.63;5070075;28;20287;-63
2021/12/23 03:33:52;;;;;;;50.67;19.37;;;;;;;-9.68;97.02;98168.31;5070582;28;20283;-63
2021/12/23 03:36:19;;;;;;;45.23;19.47;;;;;;;-9.67;97.09;98170.88;5070457;28;20294;-63
2021/12/23 03:38:46;;;;;;;48.33;17.63;;;;;;;-9.86;96.55;98174.00;5070311;28;20314;-63
2021/12/23 03:41:14;;;;;;;51.13;19.67;;;;;;;-9.98;96.80;98172.09;5070459;28;20621;-63
2021/12/23 03:43:42;;;;;;;47.60;18.00;;;;;;;-9.81;96.88;98167.28;5069759;28;20279;-63
2021/12/23 03:46:10;;;;;;;34.80;15.07;;;;;;;-9.78;96.45;98171.56;5070401;28;20287;-63
2021/12/23 03:48:37;;;;;;;44.30;17.00;;;;;;;-9.87;96.86;98172.28;5070018;28;20832;-62
2021/12/23 03:51:04;;;;;;;42.33;15.37;;;;;;;-10.01;96.68;98173.75;5070262;28;20279;-63
2021/12/23 03:53:30;;;;;;;36.07;14.77;;;;;;;-10.04;96.61;98172.88;5070314;28;20287;-62
2021/12/23 03:55:57;;;;;;;40.53;15.73;;;;;;;-10.10;96.97;98173.63;5070076;28;20302;-62
2021/12/23 03:58:24;;;;;;;41.80;14.23;;;;;;;-10.06;97.76;98171.13;5069842;28;20296;-62
2021/12/23 04:00:52;;;;;;;42.03;15.60;;;;;;;-9.86;97.40;98163.81;5070014;28;20293;-63
2021/12/23 04:03:21;;;;;;;39.63;16.33;;;;;;;-9.76;98.00;98168.22;5070060;28;20286;-63
2021/12/23 04:05:48;;;;;;;42.60;16.70;;;;;;;-9.61;97.57;98170.13;5070162;28;20283;-62
2021/12/23 04:08:14;;;;;;;47.47;18.47;;;;;;;-9.46;97.63;98178.84;5070093;28;20341;-62
2021/12/23 04:10:41;;;;;;;40.90;14.33;;;;;;;-9.40;97.27;98168.75;5069962;28;20282;-62
2021/12/23 04:13:08;;;;;;;40.37;14.67;;;;;;;-9.50;97.24;98169.44;5069945;28;20402;-62
2021/12/23 04:15:36;;;;;;;39.07;17.13;;;;;;;-9.57;97.39;98170.19;5070084;28;20299;-63
2021/12/23 04:18:03;;;;;;;34.60;13.57;;;;;;;-9.61;98.44;98170.97;5069894;28;20294;-63
2021/12/23 04:20:35;;;;;;;31.50;13.07;;;;;;;-9.59;99.24;98161.66;5070183;28;20366;-64
2021/12/23 04:23:03;;;;;;;41.90;16.83;;;;;;;-9.55;99.58;98155.78;5069801;28;20314;-63
2021/12/23 04:25:30;;;;;;;40.37;13.70;;;;;;;-9.54;98.96;98146.44;5069764;28;20293;-63
2021/12/23 04:28:01;;;;;;;34.43;15.73;;;;;;;-9.72;99.51;98136.84;5069719;28;20357;-63
2021/12/23 04:30:27;;;;;;;37.27;14.00;;;;;;;-9.79;99.66;98141.81;5070230;28;20298;-62
2021/12/23 04:32:55;;;;;;;37.33;13.70;;;;;;;-9.89;100.00;98142.53;5069996;28;20291;-62
2021/12/23 04:35:22;;;;;;;36.17;14.53;;;;;;;-9.92;100.00;98142.50;5070108;28;20294;-62
2021/12/23 04:37:50;;;;;;;35.10;13.13;;;;;;;-9.94;100.00;98139.91;5070304;28;20357;-63
2021/12/23 04:40:17;;;;;;;31.53;12.60;;;;;;;-9.99;100.00;98141.56;5069730;28;20282;-62
2021/12/23 04:42:44;;;;;;;33.50;11.67;;;;;;;-9.83;100.00;98138.38;5070169;28;20291;-62
2021/12/23 04:45:11;;;;;;;34.87;13.13;;;;;;;-9.74;100.00;98137.69;5073569;28;20369;-62
2021/12/23 04:47:39;;;;;;;32.67;14.53;;;;;;;-9.63;100.00;98136.97;5073771;28;20370;-62
2021/12/23 04:50:08;;;;;;;33.33;13.63;;;;;;;-9.56;100.00;98136.22;5073382;28;20286;-62
2021/12/23 04:52:35;;;;;;;37.53;14.43;;;;;;;-9.48;100.00;98137.19;5073227;28;20299;-62
2021/12/23 04:55:04;;;;;;;38.13;14.00;;;;;;;-9.46;100.00;98124.47;5073268;28;20752;-62
2021/12/23 04:57:31;;;;;;;42.23;15.20;;;;;;;-9.45;100.00;98119.38;5073283;28;20293;-63
2021/12/23 04:59:58;;;;;;;34.80;14.07;;;;;;;-9.45;100.00;98121.94;5072837;28;20295;-62
2021/12/23 05:02:25;;;;;;;42.70;14.30;;;;;;;-9.50;100.00;98109.97;5073465;28;20287;-61
2021/12/23 05:04:52;;;;;;;34.53;14.67;;;;;;;-9.42;100.00;98114.34;5073269;28;20287;-63
2021/12/23 05:07:19;;;;;;;35.40;14.57;;;;;;;-9.36;100.00;98118.66;5073093;28;20316;-64
2021/12/23 05:09:47;;;;;;;37.83;14.70;;;;;;;-9.23;100.00;98134.13;5073889;28;20279;-63
2021/12/23 05:12:15;;;;;;;42.97;18.47;;;;;;;-9.19;100.00;98130.75;5073758;28;20666;-63
2021/12/23 05:14:42;;;;;;;46.10;17.77;;;;;;;-9.98;99.25;98154.28;5073196;28;20287;-63
2021/12/23 05:17:09;;;;;;;56.03;20.40;;;;;;;-10.14;100.00;98151.50;5072950;28;20303;-64
2021/12/23 05:19:35;;;;;;;46.80;18.53;;;;;;;-9.84;100.00;98129.03;5072971;28;20283;-64
2021/12/23 05:22:02;;;;;;;55.50;22.90;;;;;;;-9.55;100.00;98135.41;5072760;28;20302;-63
2021/12/23 05:24:29;;;;;;;54.23;21.80;;;;;;;-9.89;98.65;98138.28;5073233;28;20763;-64
2021/12/23 05:26:56;;;;;;;61.50;21.47;;;;;;;-10.15;97.40;98137.91;5073962;28;20397;-62
2021/12/23 05:29:24;;;;;;;47.67;20.43;;;;;;;-10.06;97.25;98137.19;5072954;28;20385;-62
2021/12/23 05:31:51;;;;;;;48.70;19.43;;;;;;;-9.95;97.60;98139.91;5072712;28;20302;-62
2021/12/23 05:34:18;;;;;;;53.77;19.50;;;;;;;-9.81;96.85;98141.81;5072951;28;20282;-62
2021/12/23 05:36:45;;;;;;;49.60;18.60;;;;;;;-9.70;97.19;98135.16;5070507;28;20283;-63
2021/12/23 05:39:11;;;;;;;42.17;17.50;;;;;;;-9.62;96.89;98130.19;5070279;28;20298;-63
2021/12/23 05:41:39;;;;;;;39.83;14.90;;;;;;;-9.57;96.74;98136.19;5072128;28;20684;-63
2021/12/23 05:44:05;;;;;;;45.77;17.77;;;;;;;-9.65;96.19;98136.13;5072413;28;20371;-62
2021/12/23 05:46:33;;;;;;;42.97;17.57;;;;;;;-9.64;96.43;98134.41;5072380;28;20290;-63
2021/12/23 05:49:00;;;;;;;44.53;17.73;;;;;;;-9.55;96.13;98130.31;5069654;28;20287;-62
2021/12/23 05:51:27;;;;;;;47.63;18.17;;;;;;;-9.43;95.71;98119.41;5072248;28;20287;-63
2021/12/23 05:53:54;;;;;;;54.17;19.00;;;;;;;-9.39;96.00;98124.56;5072008;28;20291;-63
2021/12/23 05:56:21;;;;;;;42.93;18.47;;;;;;;-9.56;95.20;98136.22;5073255;28;20302;-62
2021/12/23 05:58:47;;;;;;;54.33;20.17;;;;;;;-9.52;96.26;98148.16;5072512;28;20283;-63
2021/12/23 06:01:14;;;;;;;42.67;17.00;;;;;;;-9.38;95.98;98136.47;5072027;28;20294;-61
2021/12/23 06:03:46;;;;;;;40.40;16.17;;;;;;;-9.27;96.10;98140.03;5071640;28;20294;-62
2021/12/23 06:06:14;;;;;;;39.83;15.63;;;;;;;-9.29;95.75;98144.25;5072115;28;20287;-62
2021/12/23 06:08:41;;;;;;;50.70;17.43;;;;;;;-9.31;96.08;98137.41;5071746;28;20286;-63
2021/12/23 06:11:08;;;;;;;43.33;15.27;;;;;;;-9.41;96.42;98133.88;5071957;28;20313;-63
2021/12/23 06:13:36;;;;;;;46.83;17.63;;;;;;;-9.45;96.63;98131.28;5071566;28;20287;-63
2021/12/23 06:16:03;;;;;;;45.70;17.53;;;;;;;-9.33;96.74;98124.63;5072936;28;20313;-63
2021/12/23 06:18:30;;;;;;;50.50;18.97;;;;;;;-9.18;96.88;98117.19;5071704;28;20279;-62
2021/12/23 06:20:58;;;;;;;43.03;15.90;;;;;;;-9.35;96.74;98121.22;5071407;28;20297;-63
2021/12/23 06:23:25;;;;;;;41.27;14.77;;;;;;;-9.46;97.06;98122.78;5071747;28;20301;-63
2021/12/23 06:25:52;;;;;;;38.40;15.47;;;;;;;-9.32;97.16;98118.72;5071435;28;20283;-64
2021/12/23 06:28:19;;;;;;;58.27;21.33;;;;;;;-9.20;97.27;98113.75;5071441;28;20282;-63
2021/12/23 06:30:46;;;;;;;46.20;17.23;;;;;;;-9.21;97.89;98112.06;5073279;28;20291;-63
2021/12/23 06:33:13;;;;;;;44.03;15.90;;;;;;;-9.30;97.49;98106.00;5072752;28;20290;-62
2021/12/23 06:35:40;;;;;;;36.13;15.33;;;;;;;-9.38;98.03;98113.53;5071277;28;20298;-63
2021/12/23 06:38:10;;;;;;;39.33;15.77;;;;;;;-9.33;98.82;98108.50;5070225;28;20279;-63
2021/12/23 06:40:38;;;;;;;37.83;14.87;;;;;;;-9.15;98.84;98108.72;5071254;28;20758;-63
2021/12/23 06:43:04;;;;;;;36.67;15.87;;;;;;;-9.13;99.27;98102.81;5070978;28;20636;-63
2021/12/23 06:45:31;;;;;;;50.10;16.07;;;;;;;-9.11;99.84;98101.09;5072049;28;20393;-62
2021/12/23 06:47:58;;;;;;;42.53;17.07;;;;;;;-9.16;100.00;98100.22;5070914;28;20291;-62
2021/12/23 06:50:25;;;;;;;39.33;14.53;;;;;;;-9.26;99.49;98102.66;5071385;28;20290;-62
2021/12/23 06:52:52;;;;;;;35.13;14.60;;;;;;;-9.19;100.00;98100.16;5070767;28;20313;-62
2021/12/23 06:55:20;;;;;;;47.33;17.17;;;;;;;-9.11;100.00;98101.09;5070975;28;20307;-63
2021/12/23 06:57:53;;;;;;;43.50;16.97;;;;;;;-8.96;100.00;98097.91;5071048;28;20302;-63
2021/12/23 07:00:20;;;;;;;51.38;18.83;;;;;;;-8.75;99.97;98098.13;5069666;28;20295;-63
2021/12/23 07:02:47;;;;;;;48.90;20.90;;;;;;;-8.54;99.65;98095.72;5071075;28;20113;-62
2021/12/23 07:05:15;;;;;;;57.47;19.90;;;;;;;-8.41;99.29;98090.75;5070530;28;20318;-63
2021/12/23 07:07:52;;;;;;;49.27;19.73;;;;;;;-8.34;98.95;98084.84;5070554;28;20291;-63
2021/12/23 07:10:22;;;;;;;67.93;25.37;;;;;;;-8.10;98.71;98079.94;5071115;28;20646;-63
2021/12/23 07:12:49;;;;;;;52.20;21.30;;;;;;;-7.98;98.26;98086.84;5070583;28;20369;-63
2021/12/23 07:15:16;;;;;;;52.23;20.70;;;;;;;-7.96;98.52;98070.69;5070594;28;20279;-63
2021/12/23 07:17:43;;;;;;;53.20;20.03;;;;;;;-7.97;98.30;98073.22;5069329;28;20320;-63
2021/12/23 07:20:11;;;;;;;46.43;19.50;;;;;;;-8.06;98.55;98076.56;5070562;28;20286;-62
2021/12/23 07:22:38;;;;;;;49.53;20.27;;;;;;;-8.08;98.79;98075.69;5070703;28;20297;-63
2021/12/23 07:25:06;;;;;;;104.27;46.90;;;;;;;-7.91;99.43;98073.25;5070800;28;20283;-63
2021/12/23 07:27:34;;;;;;;78.57;35.60;;;;;;;-7.85;98.56;98071.63;5071306;28;21069;-63
2021/12/23 07:30:02;;;;;;;63.70;23.93;;;;;;;-7.75;98.82;98068.25;5070667;28;20301;-63
2021/12/23 07:32:28;;;;;;;50.13;21.33;;;;;;;-7.55;99.00;98061.56;5070363;28;20295;-62
2021/12/23 07:34:55;;;;;;;54.50;21.43;;;;;;;-7.54;98.03;98060.69;5070500;28;20406;-62
2021/12/23 07:37:22;;;;;;;46.23;17.70;;;;;;;-7.48;98.07;98059.88;5070125;28;20298;-64
2021/12/23 07:39:49;;;;;;;57.70;21.90;;;;;;;-7.20;98.07;98054.03;5070597;28;20290;-63
2021/12/23 07:42:18;;;;;;;51.93;19.47;;;;;;;-7.00;97.63;98052.38;5070265;28;20290;-63
2021/12/23 07:44:46;;;;;;;55.13;21.87;;;;;;;-6.87;96.81;98042.16;5070564;28;20348;-63
2021/12/23 07:47:14;;;;;;;55.77;23.43;;;;;;;-6.88;96.88;98034.50;5066695;28;20648;-63
2021/12/23 07:49:41;;;;;;;46.17;20.13;;;;;;;-6.87;96.82;98041.34;5070255;28;20366;-63
2021/12/23 07:52:09;;;;;;;50.20;19.53;;;;;;;-6.79;96.86;98035.34;5070000;28;20866;-63
2021/12/23 07:54:36;;;;;;;51.73;19.27;;;;;;;-6.61;96.60;98037.09;5070022;28;20282;-62
2021/12/23 07:57:04;;;;;;;47.17;18.47;;;;;;;-6.49;96.00;98030.28;5069935;28;20298;-63
2021/12/23 07:59:31;;;;;;;40.50;18.20;;;;;;;-6.55;95.70;98030.28;5070097;28;20309;-63
2021/12/23 08:01:59;;;;;;;44.60;17.83;;;;;;;-6.65;95.67;98031.13;5071554;28;20294;-62
2021/12/23 08:04:26;;;;;;;46.97;19.77;;;;;;;-6.51;95.88;98026.88;5070079;28;20326;-64
2021/12/23 08:06:55;;;;;;;43.87;16.97;;;;;;;-6.28;96.21;98033.69;5070045;28;20340;-62
2021/12/23 08:09:24;;;;;;;46.53;19.23;;;;;;;-6.28;95.35;98032.00;5069861;28;20285;-63
2021/12/23 08:11:51;;;;;;;46.17;18.23;;;;;;;-6.40;94.71;98025.16;5067539;28;20319;-64
2021/12/23 08:14:18;;;;;;;44.63;17.73;;;;;;;-6.29;95.32;98035.41;5066877;28;20377;-63
2021/12/23 08:16:45;;;;;;;50.73;20.47;;;;;;;-6.05;94.71;98037.94;5070373;28;20299;-63
2021/12/23 08:19:14;;;;;;;49.33;19.83;;;;;;;-5.94;94.35;98031.09;5074102;28;20294;-63
2021/12/23 08:21:41;;;;;;;36.60;16.67;;;;;;;-6.07;94.18;98029.41;5072952;28;20040;-63
2021/12/23 08:24:07;;;;;;;39.97;16.40;;;;;;;-6.19;94.03;98026.84;5061404;28;20048;-63
2021/12/23 08:26:40;;;;;;;42.27;18.63;;;;;;;-6.15;94.38;98028.56;5063965;28;20094;-64
2021/12/23 08:29:08;;;;;;;42.37;17.40;;;;;;;-6.00;94.07;98030.28;5068048;28;20135;-64
2021/12/23 08:31:35;;;;;;;42.53;18.17;;;;;;;-5.95;94.20;98033.66;5071584;28;20052;-65
2021/12/23 08:34:02;;;;;;;41.90;16.20;;;;;;;-5.93;94.23;98029.41;5073404;28;20064;-69
2021/12/23 08:36:30;;;;;;;43.57;18.73;;;;;;;-6.06;94.19;98031.13;5073481;28;20047;-66
2021/12/23 08:38:58;;;;;;;45.47;19.43;;;;;;;-6.04;94.52;98020.88;5073810;28;20072;-66
2021/12/23 08:41:25;;;;;;;40.90;16.77;;;;;;;-6.03;93.72;98025.13;5073978;28;20044;-66
2021/12/23 08:43:52;;;;;;;35.03;16.30;;;;;;;-5.96;93.82;98021.72;5073468;28;20079;-67
2021/12/23 08:46:19;;;;;;;51.90;19.03;;;;;;;-5.93;93.44;98024.28;5073454;28;20362;-64
2021/12/23 08:48:45;;;;;;;43.67;18.73;;;;;;;-5.77;93.06;98010.56;5073581;28;20389;-66
2021/12/23 08:51:12;;;;;;;38.77;17.20;;;;;;;-5.68;93.47;97997.69;5073764;28;20400;-65
2021/12/23 08:53:41;;;;;;;45.53;19.40;;;;;;;-5.63;92.91;97996.00;5072427;28;20036;-67
2021/12/23 08:56:08;;;;;;;46.77;19.70;;;;;;;-5.58;93.34;97994.25;5073153;28;20051;-68
2021/12/23 08:58:36;;;;;;;43.80;18.33;;;;;;;-5.52;93.20;97989.94;5073316;28;20091;-68
2021/12/23 09:01:04;;;;;;;46.53;19.53;;;;;;;-5.45;92.82;97991.63;5073007;28;20041;-68
2021/12/23 09:03:33;;;;;;;50.93;19.60;;;;;;;-5.27;92.83;97978.72;5072998;28;20036;-67
2021/12/23 09:06:00;;;;;;;42.33;18.00;;;;;;;-5.18;92.82;97975.25;5072967;28;20047;-67
2021/12/23 09:08:27;;;;;;;46.00;21.43;;;;;;;-5.09;91.59;97970.94;5074121;28;20036;-67
2021/12/23 09:10:57;;;;;;;40.07;18.53;;;;;;;-5.03;91.49;97964.91;5073084;28;20049;-63
2021/12/23 09:13:24;;;;;;;46.73;19.47;;;;;;;-5.00;91.44;97959.75;5072950;28;20043;-63
2021/12/23 09:15:51;;;;;;;48.47;20.13;;;;;;;-5.10;91.61;97951.25;5073480;28;20045;-65
2021/12/23 09:18:19;;;;;;;45.67;19.03;;;;;;;-5.11;91.58;97953.84;5073445;28;20041;-64
2021/12/23 09:20:46;;;;;;;48.40;22.00;;;;;;;-5.14;91.42;97952.16;5058937;28;20055;-64
2021/12/23 09:23:13;;;;;;;44.97;19.50;;;;;;;-5.17;91.69;97957.28;5052669;28;20047;-62
2021/12/23 09:25:41;;;;;;;49.60;21.70;;;;;;;-5.07;91.73;97943.56;5054401;28;20045;-63
2021/12/23 09:28:24;;;;;;;45.50;20.60;;;;;;;-4.67;91.30;97942.38;5058810;28;20045;-62
2021/12/23 09:33:36;;;;;;;51.10;21.00;;;;;;;-4.88;90.62;97944.25;5067197;28;20498;-62
2021/12/23 09:36:03;;;;;;;47.37;20.33;;;;;;;-4.88;90.70;97936.56;5071544;28;20055;-62
2021/12/23 09:38:30;;;;;;;48.00;20.93;;;;;;;-4.72;90.69;97930.44;5069870;28;20048;-62
2021/12/23 09:41:03;;;;;;;52.07;20.33;;;;;;;-4.59;90.81;97919.22;5069494;28;20055;-62
2021/12/23 09:43:33;;;;;;;;;;;;;;;-4.12;90.21;97923.03;5069716;28;20052;-65
2021/12/23 09:46:01;;;;;;;41.63;19.00;;;;;;;-4.01;88.98;97918.63;5067697;28;19926;-63
2021/12/23 09:48:29;;;;;;;38.93;19.37;;;;;;;-4.01;88.25;97920.34;5069243;28;20039;-63
2021/12/23 09:50:59;;;;;;;44.90;19.77;;;;;;;-4.28;87.43;97912.91;5068808;28;20135;-62
2021/12/23 09:53:27;;;;;;;45.53;20.00;;;;;;;-4.61;88.53;97913.22;5065385;28;20044;-64
2021/12/23 09:55:54;;;;;;;56.67;25.87;;;;;;;-4.68;89.27;97903.84;5070296;28;20215;-63
2021/12/23 09:58:21;;;;;;;48.63;22.73;;;;;;;-4.59;89.12;97903.81;5067671;28;20549;-64
2021/12/23 10:00:49;;;;;;;40.67;18.83;;;;;;;-4.51;89.50;97899.44;5067285;28;20040;-64
2021/12/23 10:03:18;;;;;;;48.13;22.07;;;;;;;-4.26;88.53;97891.47;5069852;28;20496;-63
2021/12/23 10:05:46;;;;;;;55.70;24.07;;;;;;;-4.34;88.36;97890.69;5071312;28;20089;-64
2021/12/23 10:08:14;;;;;;;47.70;19.83;;;;;;;-4.39;88.01;97889.03;5070252;28;20573;-64
2021/12/23 10:10:46;;;;;;;56.57;20.50;;;;;;;-4.19;88.75;97884.56;5070603;28;20062;-61
2021/12/23 10:27:43;;;;;;;47.80;21.90;;;;;;;-3.57;86.34;97867.50;5070451;28;20033;-62
2021/12/23 10:30:20;;;;;;;49.10;20.37;;;;;;;-3.64;85.79;97859.91;5069413;28;20507;-67
2021/12/23 10:38:49;;;;;;;54.97;22.37;;;;;;;-3.53;85.85;97848.56;5009546;28;20041;-67
2021/12/23 10:41:18;;;;;;;48.77;21.73;;;;;;;-3.60;85.27;97846.13;5044815;28;20140;-67
2021/12/23 10:43:48;;;;;;;52.27;23.37;;;;;;;-3.50;85.17;97834.81;5070934;28;20049;-67
2021/12/23 10:46:19;;;;;;;52.63;23.03;;;;;;;-3.49;84.83;97831.38;5071133;28;20049;-60
2021/12/23 10:48:57;;;;;;;46.30;19.83;;;;;;;-3.34;85.07;97824.25;5067074;28;20078;-69
2021/12/23 10:51:23;;;;;;;45.50;20.87;;;;;;;-3.27;84.22;97817.31;5071381;28;20044;-68
2021/12/23 10:54:19;;;;;;;44.93;18.03;;;;;;;-3.21;83.05;97819.78;5071687;28;20048;-76
2021/12/23 10:59:30;;;;;;;36.97;15.73;;;;;;;-3.38;82.42;97803.75;5070739;28;20385;-74
2021/12/23 11:02:30;;;;;;;36.90;16.47;;;;;;;-3.65;82.05;97806.72;5066089;28;20036;-75
2021/12/23 11:05:09;;;;;;;42.57;16.23;;;;;;;-3.95;82.72;97800.28;5049019;28;20053;-72
2021/12/23 11:07:56;;;;;;;30.83;14.97;;;;;;;-4.20;83.18;97803.16;5069298;28;20040;-76
2021/12/23 11:10:57;;;;;;;40.33;17.20;;;;;;;-4.13;83.54;97800.50;5068281;28;20055;-75
2021/12/23 11:27:49;;;;;;;39.00;15.17;;;;;;;-4.03;82.92;97772.97;5063668;28;20037;-76
2021/12/23 11:36:15;;;;;;;42.30;16.27;;;;;;;-4.14;83.49;97772.25;5037850;28;20049;-75
2021/12/23 11:39:03;;;;;;;34.70;15.83;;;;;;;-4.14;83.33;97770.53;5067103;28;20068;-58
2021/12/23 11:41:37;;;;;;;35.87;16.30;;;;;;;-4.16;83.31;97762.00;5069579;28;20516;-58
2021/12/23 11:44:06;;;;;;;39.63;15.83;;;;;;;-4.31;82.93;97767.31;5067513;28;20124;-59
2021/12/23 11:46:38;;;;;;;36.37;17.03;;;;;;;-4.30;83.94;97769.00;5066292;28;20040;-58
2021/12/23 11:49:08;;;;;;;47.23;16.20;;;;;;;-4.23;83.57;97755.22;5066465;28;20036;-58
2021/12/23 11:51:45;;;;;;;37.93;14.77;;;;;;;-4.15;83.28;97761.09;5069232;28;20481;-58
2021/12/23 11:54:16;;;;;;;32.40;15.53;;;;;;;-4.19;83.01;97761.19;5067203;28;20443;-68
2021/12/23 11:56:47;;;;;;;35.40;15.10;;;;;;;-4.13;83.81;97750.81;5068159;28;20044;-71
2021/12/23 11:59:15;;;;;;;33.93;14.50;;;;;;;-4.08;83.17;97752.44;5069833;28;20036;-71
2021/12/23 12:01:44;;;;;;;38.73;15.70;;;;;;;-4.07;82.77;97743.03;5069591;28;20033;-68
2021/12/23 12:04:23;;;;;;;38.97;18.70;;;;;;;-3.95;82.70;97742.84;5071598;28;20105;-70
2021/12/23 12:06:51;;;;;;;37.73;15.80;;;;;;;-3.92;82.76;97745.38;5068896;28;21669;-70
2021/12/23 12:09:22;;;;;;;41.17;18.10;;;;;;;-4.03;81.48;97739.53;5062427;28;20134;-70
2021/12/23 12:12:06;;;;;;;29.37;13.83;;;;;;;-4.01;81.17;97733.50;5066322;28;20041;-71